Funkstown, Maryland
Current Conditions -  °F | °C
As of 2:53 PM on Sunday 25 Jan 2015 (Local Time) from KHGR Reporting Station
Overcast Overcast  
Wind Chill: 39°   Ceiling: 4700
Heat Index: 42°   Visibility: 10mi
Dew Point: 30°   Wind: 5mph
Humidity: 62%   Direction: 90°E
Pressure: 29.78"   Gusts: NA
Location:  39.61°N, 77.7°W
Report Text: KHGR 251953Z 09004KT 10SM BKN047 OVC100 06/M01 A2978 RMK AO2 SLP099 T00561011
Loading
Personal Weather Stations






























Interactive Weather Map New forecast layout! Learn more

10-Day Weather Forecast

Advertisements
Track Severe Weather on mobile